sensor_id;sensor_type;location;lat;lon;timestamp;P1;durP1;ratioP1;P2;durP2;ratioP2
13343;SDS011;6741;48.964;9.406;2023-04-16T00:01:18;17.73;;;12.83;;
13343;SDS011;6741;48.964;9.406;2023-04-16T00:03:45;17.43;;;13.03;;
13343;SDS011;6741;48.964;9.406;2023-04-16T00:06:13;19.83;;;14.60;;
13343;SDS011;6741;48.964;9.406;2023-04-16T00:08:40;16.43;;;12.83;;
13343;SDS011;6741;48.964;9.406;2023-04-16T00:11:07;18.83;;;13.60;;
13343;SDS011;6741;48.964;9.406;2023-04-16T00:13:34;18.97;;;14.10;;
13343;SDS011;6741;48.964;9.406;2023-04-16T00:16:01;16.87;;;13.57;;
13343;SDS011;6741;48.964;9.406;2023-04-16T00:18:28;18.80;;;13.27;;
13343;SDS011;6741;48.964;9.406;2023-04-16T00:20:56;17.33;;;13.67;;
13343;SDS011;6741;48.964;9.406;2023-04-16T00:23:25;18.67;;;13.83;;
13343;SDS011;6741;48.964;9.406;2023-04-16T00:25:52;18.83;;;14.03;;
13343;SDS011;6741;48.964;9.406;2023-04-16T00:28:24;21.47;;;15.27;;
13343;SDS011;6741;48.964;9.406;2023-04-16T00:30:51;19.63;;;14.20;;
13343;SDS011;6741;48.964;9.406;2023-04-16T00:33:18;19.20;;;14.77;;
13343;SDS011;6741;48.964;9.406;2023-04-16T00:35:45;20.13;;;15.17;;
13343;SDS011;6741;48.964;9.406;2023-04-16T00:38:12;20.50;;;15.37;;
13343;SDS011;6741;48.964;9.406;2023-04-16T00:40:41;20.23;;;14.27;;
13343;SDS011;6741;48.964;9.406;2023-04-16T00:43:08;19.00;;;14.07;;
13343;SDS011;6741;48.964;9.406;2023-04-16T00:45:35;19.53;;;15.10;;
13343;SDS011;6741;48.964;9.406;2023-04-16T00:48:02;21.33;;;14.13;;
13343;SDS011;6741;48.964;9.406;2023-04-16T00:50:29;19.67;;;13.27;;
13343;SDS011;6741;48.964;9.406;2023-04-16T00:52:56;21.33;;;15.43;;
13343;SDS011;6741;48.964;9.406;2023-04-16T00:55:23;19.43;;;13.70;;
13343;SDS011;6741;48.964;9.406;2023-04-16T00:57:52;18.53;;;14.00;;
13343;SDS011;6741;48.964;9.406;2023-04-16T01:00:20;19.47;;;14.17;;
13343;SDS011;6741;48.964;9.406;2023-04-16T01:02:51;20.07;;;13.60;;
13343;SDS011;6741;48.964;9.406;2023-04-16T01:05:18;16.10;;;12.57;;
13343;SDS011;6741;48.964;9.406;2023-04-16T01:07:46;19.07;;;13.50;;
13343;SDS011;6741;48.964;9.406;2023-04-16T01:10:12;17.60;;;13.20;;
13343;SDS011;6741;48.964;9.406;2023-04-16T01:12:39;16.83;;;12.77;;
13343;SDS011;6741;48.964;9.406;2023-04-16T01:15:08;18.13;;;12.17;;
13343;SDS011;6741;48.964;9.406;2023-04-16T01:17:36;14.67;;;11.47;;
13343;SDS011;6741;48.964;9.406;2023-04-16T01:20:04;15.97;;;12.20;;
13343;SDS011;6741;48.964;9.406;2023-04-16T01:22:32;16.20;;;12.67;;
13343;SDS011;6741;48.964;9.406;2023-04-16T01:24:59;15.87;;;12.03;;
13343;SDS011;6741;48.964;9.406;2023-04-16T01:27:26;17.20;;;12.70;;
13343;SDS011;6741;48.964;9.406;2023-04-16T01:29:53;17.50;;;12.07;;
13343;SDS011;6741;48.964;9.406;2023-04-16T01:32:21;18.53;;;13.40;;
13343;SDS011;6741;48.964;9.406;2023-04-16T01:34:48;18.57;;;12.93;;
13343;SDS011;6741;48.964;9.406;2023-04-16T01:37:14;19.63;;;13.67;;
13343;SDS011;6741;48.964;9.406;2023-04-16T01:39:43;18.60;;;12.97;;
13343;SDS011;6741;48.964;9.406;2023-04-16T01:42:10;18.40;;;13.03;;
13343;SDS011;6741;48.964;9.406;2023-04-16T01:44:37;15.83;;;11.57;;
13343;SDS011;6741;48.964;9.406;2023-04-16T01:47:04;14.63;;;11.47;;
13343;SDS011;6741;48.964;9.406;2023-04-16T01:49:31;14.57;;;11.47;;
13343;SDS011;6741;48.964;9.406;2023-04-16T01:51:58;16.83;;;12.30;;
13343;SDS011;6741;48.964;9.406;2023-04-16T01:54:25;16.17;;;11.50;;
13343;SDS011;6741;48.964;9.406;2023-04-16T01:56:54;14.63;;;11.33;;
13343;SDS011;6741;48.964;9.406;2023-04-16T01:59:21;15.90;;;11.13;;
13343;SDS011;6741;48.964;9.406;2023-04-16T02:01:48;16.23;;;11.17;;
13343;SDS011;6741;48.964;9.406;2023-04-16T02:04:15;15.37;;;11.73;;
13343;SDS011;6741;48.964;9.406;2023-04-16T02:06:42;15.07;;;11.70;;
13343;SDS011;6741;48.964;9.406;2023-04-16T02:09:08;15.23;;;11.37;;
13343;SDS011;6741;48.964;9.406;2023-04-16T02:11:35;15.73;;;10.90;;
13343;SDS011;6741;48.964;9.406;2023-04-16T02:14:04;13.80;;;10.97;;
13343;SDS011;6741;48.964;9.406;2023-04-16T02:16:32;16.07;;;11.83;;
13343;SDS011;6741;48.964;9.406;2023-04-16T02:18:59;15.60;;;12.10;;
13343;SDS011;6741;48.964;9.406;2023-04-16T02:21:26;15.73;;;11.30;;
13343;SDS011;6741;48.964;9.406;2023-04-16T02:23:53;16.10;;;12.07;;
13343;SDS011;6741;48.964;9.406;2023-04-16T02:26:20;18.57;;;12.00;;
13343;SDS011;6741;48.964;9.406;2023-04-16T02:28:47;17.20;;;12.57;;
13343;SDS011;6741;48.964;9.406;2023-04-16T02:31:15;17.17;;;12.93;;
13343;SDS011;6741;48.964;9.406;2023-04-16T02:33:43;14.77;;;11.83;;
13343;SDS011;6741;48.964;9.406;2023-04-16T02:36:10;16.50;;;12.27;;
13343;SDS011;6741;48.964;9.406;2023-04-16T02:38:37;17.33;;;11.63;;
13343;SDS011;6741;48.964;9.406;2023-04-16T02:41:04;15.87;;;11.73;;
13343;SDS011;6741;48.964;9.406;2023-04-16T02:43:31;17.03;;;12.90;;
13343;SDS011;6741;48.964;9.406;2023-04-16T02:45:58;15.00;;;11.37;;
13343;SDS011;6741;48.964;9.406;2023-04-16T02:48:26;17.73;;;12.43;;
13343;SDS011;6741;48.964;9.406;2023-04-16T02:50:53;15.43;;;12.43;;
13343;SDS011;6741;48.964;9.406;2023-04-16T02:53:20;18.93;;;12.83;;
13343;SDS011;6741;48.964;9.406;2023-04-16T02:55:49;17.10;;;12.40;;
13343;SDS011;6741;48.964;9.406;2023-04-16T02:58:17;17.37;;;12.30;;
13343;SDS011;6741;48.964;9.406;2023-04-16T03:00:44;18.10;;;12.53;;
13343;SDS011;6741;48.964;9.406;2023-04-16T03:03:11;16.77;;;13.03;;
13343;SDS011;6741;48.964;9.406;2023-04-16T03:05:40;20.20;;;13.97;;
13343;SDS011;6741;48.964;9.406;2023-04-16T03:08:06;15.37;;;11.97;;
13343;SDS011;6741;48.964;9.406;2023-04-16T03:10:33;16.03;;;12.30;;
13343;SDS011;6741;48.964;9.406;2023-04-16T03:13:01;21.87;;;13.70;;
13343;SDS011;6741;48.964;9.406;2023-04-16T03:15:28;15.50;;;11.67;;
13343;SDS011;6741;48.964;9.406;2023-04-16T03:17:55;18.67;;;13.43;;
13343;SDS011;6741;48.964;9.406;2023-04-16T03:20:22;20.50;;;13.90;;
13343;SDS011;6741;48.964;9.406;2023-04-16T03:22:50;18.60;;;12.87;;
13343;SDS011;6741;48.964;9.406;2023-04-16T03:25:17;18.47;;;13.40;;
13343;SDS011;6741;48.964;9.406;2023-04-16T03:27:44;18.77;;;13.10;;
13343;SDS011;6741;48.964;9.406;2023-04-16T03:30:12;17.87;;;13.07;;
13343;SDS011;6741;48.964;9.406;2023-04-16T03:32:39;19.97;;;13.20;;
13343;SDS011;6741;48.964;9.406;2023-04-16T03:35:06;19.27;;;13.37;;
13343;SDS011;6741;48.964;9.406;2023-04-16T03:37:34;21.13;;;14.20;;
13343;SDS011;6741;48.964;9.406;2023-04-16T03:40:03;22.13;;;14.00;;
13343;SDS011;6741;48.964;9.406;2023-04-16T03:42:31;19.03;;;12.97;;
13343;SDS011;6741;48.964;9.406;2023-04-16T03:44:58;22.17;;;14.43;;
13343;SDS011;6741;48.964;9.406;2023-04-16T03:47:25;16.30;;;13.10;;
13343;SDS011;6741;48.964;9.406;2023-04-16T03:49:52;21.10;;;14.47;;
13343;SDS011;6741;48.964;9.406;2023-04-16T03:52:18;19.60;;;13.33;;
13343;SDS011;6741;48.964;9.406;2023-04-16T03:54:45;21.73;;;15.00;;
13343;SDS011;6741;48.964;9.406;2023-04-16T03:57:14;21.47;;;14.40;;
13343;SDS011;6741;48.964;9.406;2023-04-16T03:59:40;24.23;;;15.47;;
13343;SDS011;6741;48.964;9.406;2023-04-16T04:02:07;20.23;;;14.37;;
13343;SDS011;6741;48.964;9.406;2023-04-16T04:04:34;22.67;;;13.93;;
13343;SDS011;6741;48.964;9.406;2023-04-16T04:07:01;20.80;;;14.97;;
13343;SDS011;6741;48.964;9.406;2023-04-16T04:09:28;20.53;;;14.10;;
13343;SDS011;6741;48.964;9.406;2023-04-16T04:11:55;22.13;;;14.60;;
13343;SDS011;6741;48.964;9.406;2023-04-16T04:14:24;19.93;;;14.33;;
13343;SDS011;6741;48.964;9.406;2023-04-16T04:16:51;21.93;;;14.13;;
13343;SDS011;6741;48.964;9.406;2023-04-16T04:19:18;23.60;;;15.20;;
13343;SDS011;6741;48.964;9.406;2023-04-16T04:21:45;21.43;;;14.70;;
13343;SDS011;6741;48.964;9.406;2023-04-16T04:24:11;21.50;;;14.67;;
13343;SDS011;6741;48.964;9.406;2023-04-16T04:26:38;23.33;;;15.27;;
13343;SDS011;6741;48.964;9.406;2023-04-16T04:29:05;21.07;;;15.17;;
13343;SDS011;6741;48.964;9.406;2023-04-16T04:31:34;23.20;;;15.60;;
13343;SDS011;6741;48.964;9.406;2023-04-16T04:34:00;22.13;;;16.53;;
13343;SDS011;6741;48.964;9.406;2023-04-16T04:36:27;23.27;;;16.63;;
13343;SDS011;6741;48.964;9.406;2023-04-16T04:38:55;23.93;;;15.27;;
13343;SDS011;6741;48.964;9.406;2023-04-16T04:41:21;25.37;;;17.27;;
13343;SDS011;6741;48.964;9.406;2023-04-16T04:43:50;26.30;;;16.87;;
13343;SDS011;6741;48.964;9.406;2023-04-16T04:46:17;27.00;;;17.33;;
13343;SDS011;6741;48.964;9.406;2023-04-16T04:48:46;25.80;;;16.87;;
13343;SDS011;6741;48.964;9.406;2023-04-16T04:51:13;24.67;;;16.40;;
13343;SDS011;6741;48.964;9.406;2023-04-16T04:53:40;26.70;;;17.03;;
13343;SDS011;6741;48.964;9.406;2023-04-16T04:56:07;24.47;;;17.13;;
13343;SDS011;6741;48.964;9.406;2023-04-16T04:58:33;27.33;;;17.17;;
13343;SDS011;6741;48.964;9.406;2023-04-16T05:01:00;27.10;;;17.03;;
13343;SDS011;6741;48.964;9.406;2023-04-16T05:03:27;24.93;;;17.80;;
13343;SDS011;6741;48.964;9.406;2023-04-16T05:05:56;27.70;;;18.63;;
13343;SDS011;6741;48.964;9.406;2023-04-16T05:08:23;27.97;;;18.33;;
13343;SDS011;6741;48.964;9.406;2023-04-16T05:10:49;26.50;;;17.50;;
13343;SDS011;6741;48.964;9.406;2023-04-16T05:13:17;26.17;;;17.50;;
13343;SDS011;6741;48.964;9.406;2023-04-16T05:15:44;26.73;;;18.40;;
13343;SDS011;6741;48.964;9.406;2023-04-16T05:18:10;27.53;;;17.67;;
13343;SDS011;6741;48.964;9.406;2023-04-16T05:20:37;23.63;;;16.53;;
13343;SDS011;6741;48.964;9.406;2023-04-16T05:23:06;21.87;;;16.50;;
13343;SDS011;6741;48.964;9.406;2023-04-16T05:25:33;24.20;;;16.57;;
13343;SDS011;6741;48.964;9.406;2023-04-16T05:28:00;22.60;;;16.27;;
13343;SDS011;6741;48.964;9.406;2023-04-16T05:30:27;22.47;;;15.33;;
13343;SDS011;6741;48.964;9.406;2023-04-16T05:32:54;24.37;;;16.57;;
13343;SDS011;6741;48.964;9.406;2023-04-16T05:35:21;26.47;;;16.33;;
13343;SDS011;6741;48.964;9.406;2023-04-16T05:37:48;30.30;;;16.70;;
13343;SDS011;6741;48.964;9.406;2023-04-16T05:40:17;24.83;;;16.23;;
13343;SDS011;6741;48.964;9.406;2023-04-16T05:42:47;20.27;;;14.77;;
13343;SDS011;6741;48.964;9.406;2023-04-16T05:45:14;26.03;;;16.50;;
13343;SDS011;6741;48.964;9.406;2023-04-16T05:47:41;21.93;;;15.63;;
13343;SDS011;6741;48.964;9.406;2023-04-16T05:50:08;21.83;;;15.13;;
13343;SDS011;6741;48.964;9.406;2023-04-16T05:52:36;23.33;;;15.60;;
13343;SDS011;6741;48.964;9.406;2023-04-16T05:55:03;22.90;;;15.60;;
13343;SDS011;6741;48.964;9.406;2023-04-16T05:57:32;26.27;;;17.50;;
13343;SDS011;6741;48.964;9.406;2023-04-16T06:00:00;24.37;;;15.97;;
13343;SDS011;6741;48.964;9.406;2023-04-16T06:02:29;24.60;;;15.33;;
13343;SDS011;6741;48.964;9.406;2023-04-16T06:04:56;25.47;;;17.70;;
13343;SDS011;6741;48.964;9.406;2023-04-16T06:07:23;25.30;;;16.97;;
13343;SDS011;6741;48.964;9.406;2023-04-16T06:09:50;23.70;;;17.03;;
13343;SDS011;6741;48.964;9.406;2023-04-16T06:12:17;23.03;;;16.60;;
13343;SDS011;6741;48.964;9.406;2023-04-16T06:14:45;23.03;;;16.73;;
13343;SDS011;6741;48.964;9.406;2023-04-16T06:17:12;24.27;;;16.53;;
13343;SDS011;6741;48.964;9.406;2023-04-16T06:19:39;26.77;;;17.60;;
13343;SDS011;6741;48.964;9.406;2023-04-16T06:22:07;29.57;;;18.83;;
13343;SDS011;6741;48.964;9.406;2023-04-16T06:24:35;29.03;;;18.30;;
13343;SDS011;6741;48.964;9.406;2023-04-16T06:27:02;27.57;;;19.67;;
13343;SDS011;6741;48.964;9.406;2023-04-16T06:29:29;29.27;;;19.57;;
13343;SDS011;6741;48.964;9.406;2023-04-16T06:31:57;29.87;;;19.13;;
13343;SDS011;6741;48.964;9.406;2023-04-16T06:34:25;32.20;;;20.47;;
13343;SDS011;6741;48.964;9.406;2023-04-16T06:36:53;29.37;;;19.87;;
13343;SDS011;6741;48.964;9.406;2023-04-16T06:39:20;30.23;;;19.30;;
13343;SDS011;6741;48.964;9.406;2023-04-16T06:41:47;30.37;;;20.10;;
13343;SDS011;6741;48.964;9.406;2023-04-16T06:44:14;30.20;;;19.37;;
13343;SDS011;6741;48.964;9.406;2023-04-16T06:46:41;35.00;;;21.40;;
13343;SDS011;6741;48.964;9.406;2023-04-16T06:49:12;31.00;;;20.33;;
13343;SDS011;6741;48.964;9.406;2023-04-16T06:51:40;30.90;;;22.07;;
13343;SDS011;6741;48.964;9.406;2023-04-16T06:54:07;33.37;;;22.70;;
13343;SDS011;6741;48.964;9.406;2023-04-16T06:56:34;34.93;;;22.60;;
13343;SDS011;6741;48.964;9.406;2023-04-16T06:59:01;34.67;;;22.03;;
13343;SDS011;6741;48.964;9.406;2023-04-16T07:01:28;34.33;;;23.17;;
13343;SDS011;6741;48.964;9.406;2023-04-16T07:03:56;35.17;;;22.27;;
13343;SDS011;6741;48.964;9.406;2023-04-16T07:06:24;32.97;;;21.70;;
13343;SDS011;6741;48.964;9.406;2023-04-16T07:08:52;34.00;;;21.70;;
13343;SDS011;6741;48.964;9.406;2023-04-16T07:11:19;32.17;;;22.00;;
13343;SDS011;6741;48.964;9.406;2023-04-16T07:13:46;33.97;;;22.33;;
13343;SDS011;6741;48.964;9.406;2023-04-16T07:16:16;29.30;;;20.80;;
13343;SDS011;6741;48.964;9.406;2023-04-16T07:18:43;27.00;;;19.57;;
13343;SDS011;6741;48.964;9.406;2023-04-16T07:23:38;30.40;;;19.67;;
13343;SDS011;6741;48.964;9.406;2023-04-16T07:26:05;27.43;;;20.13;;
13343;SDS011;6741;48.964;9.406;2023-04-16T07:28:31;28.40;;;20.23;;
13343;SDS011;6741;48.964;9.406;2023-04-16T07:30:58;27.50;;;20.03;;
13343;SDS011;6741;48.964;9.406;2023-04-16T07:33:25;28.93;;;20.37;;
13343;SDS011;6741;48.964;9.406;2023-04-16T07:35:52;28.47;;;18.80;;
13343;SDS011;6741;48.964;9.406;2023-04-16T07:38:19;27.50;;;20.13;;
13343;SDS011;6741;48.964;9.406;2023-04-16T07:40:48;27.90;;;20.03;;
13343;SDS011;6741;48.964;9.406;2023-04-16T07:43:15;28.50;;;19.93;;
13343;SDS011;6741;48.964;9.406;2023-04-16T07:45:42;27.80;;;20.17;;
13343;SDS011;6741;48.964;9.406;2023-04-16T07:48:09;29.57;;;21.13;;
13343;SDS011;6741;48.964;9.406;2023-04-16T07:50:36;28.33;;;19.90;;
13343;SDS011;6741;48.964;9.406;2023-04-16T07:53:03;29.27;;;21.13;;
13343;SDS011;6741;48.964;9.406;2023-04-16T07:55:31;27.20;;;19.93;;
13343;SDS011;6741;48.964;9.406;2023-04-16T07:58:00;36.60;;;24.63;;
13343;SDS011;6741;48.964;9.406;2023-04-16T08:00:27;36.30;;;25.47;;
13343;SDS011;6741;48.964;9.406;2023-04-16T08:02:54;32.40;;;22.57;;
13343;SDS011;6741;48.964;9.406;2023-04-16T08:05:21;36.90;;;25.50;;
13343;SDS011;6741;48.964;9.406;2023-04-16T08:07:48;38.93;;;26.70;;
13343;SDS011;6741;48.964;9.406;2023-04-16T08:10:15;29.77;;;20.50;;
13343;SDS011;6741;48.964;9.406;2023-04-16T08:12:42;36.70;;;25.63;;
13343;SDS011;6741;48.964;9.406;2023-04-16T08:15:11;38.47;;;27.30;;
13343;SDS011;6741;48.964;9.406;2023-04-16T08:17:38;32.33;;;22.00;;
13343;SDS011;6741;48.964;9.406;2023-04-16T08:20:05;29.63;;;21.30;;
13343;SDS011;6741;48.964;9.406;2023-04-16T08:22:33;28.80;;;19.33;;
13343;SDS011;6741;48.964;9.406;2023-04-16T08:25:00;26.90;;;19.77;;
13343;SDS011;6741;48.964;9.406;2023-04-16T08:27:26;26.20;;;19.00;;
13343;SDS011;6741;48.964;9.406;2023-04-16T08:29:53;29.57;;;18.87;;
13343;SDS011;6741;48.964;9.406;2023-04-16T08:32:22;24.43;;;16.67;;
13343;SDS011;6741;48.964;9.406;2023-04-16T08:34:49;22.90;;;17.70;;
13343;SDS011;6741;48.964;9.406;2023-04-16T08:37:16;25.17;;;16.73;;
13343;SDS011;6741;48.964;9.406;2023-04-16T08:39:43;21.53;;;15.77;;
13343;SDS011;6741;48.964;9.406;2023-04-16T08:42:12;20.47;;;15.50;;
13343;SDS011;6741;48.964;9.406;2023-04-16T08:44:47;24.27;;;17.20;;
13343;SDS011;6741;48.964;9.406;2023-04-16T08:47:18;23.47;;;16.10;;
13343;SDS011;6741;48.964;9.406;2023-04-16T08:49:47;26.60;;;16.77;;
13343;SDS011;6741;48.964;9.406;2023-04-16T08:52:17;20.77;;;16.00;;
13343;SDS011;6741;48.964;9.406;2023-04-16T08:54:45;19.47;;;14.83;;
13343;SDS011;6741;48.964;9.406;2023-04-16T08:57:18;20.13;;;14.00;;
13343;SDS011;6741;48.964;9.406;2023-04-16T08:59:47;18.70;;;13.83;;
13343;SDS011;6741;48.964;9.406;2023-04-16T09:02:17;18.20;;;13.77;;
13343;SDS011;6741;48.964;9.406;2023-04-16T09:04:44;22.53;;;15.77;;
13343;SDS011;6741;48.964;9.406;2023-04-16T09:07:15;20.27;;;14.93;;
13343;SDS011;6741;48.964;9.406;2023-04-16T09:09:43;20.23;;;15.07;;
13343;SDS011;6741;48.964;9.406;2023-04-16T09:12:12;19.80;;;13.97;;
13343;SDS011;6741;48.964;9.406;2023-04-16T09:14:40;19.07;;;13.57;;
13343;SDS011;6741;48.964;9.406;2023-04-16T09:17:07;17.27;;;13.70;;
13343;SDS011;6741;48.964;9.406;2023-04-16T09:19:36;19.47;;;13.60;;
13343;SDS011;6741;48.964;9.406;2023-04-16T09:22:03;19.87;;;15.17;;
13343;SDS011;6741;48.964;9.406;2023-04-16T09:24:32;22.33;;;15.30;;
13343;SDS011;6741;48.964;9.406;2023-04-16T09:27:00;21.03;;;16.10;;
13343;SDS011;6741;48.964;9.406;2023-04-16T09:29:33;22.33;;;15.17;;
13343;SDS011;6741;48.964;9.406;2023-04-16T09:32:01;20.83;;;15.07;;
13343;SDS011;6741;48.964;9.406;2023-04-16T09:34:30;19.60;;;14.67;;
13343;SDS011;6741;48.964;9.406;2023-04-16T09:37:13;22.13;;;16.30;;
13343;SDS011;6741;48.964;9.406;2023-04-16T09:39:42;20.57;;;15.83;;
13343;SDS011;6741;48.964;9.406;2023-04-16T09:42:10;24.43;;;15.73;;
13343;SDS011;6741;48.964;9.406;2023-04-16T09:44:37;19.23;;;14.90;;
13343;SDS011;6741;48.964;9.406;2023-04-16T09:47:05;22.73;;;15.60;;
13343;SDS011;6741;48.964;9.406;2023-04-16T09:49:33;22.77;;;15.97;;
13343;SDS011;6741;48.964;9.406;2023-04-16T09:52:01;22.57;;;15.33;;
13343;SDS011;6741;48.964;9.406;2023-04-16T09:54:28;21.40;;;15.33;;
13343;SDS011;6741;48.964;9.406;2023-04-16T09:56:56;20.97;;;15.20;;
13343;SDS011;6741;48.964;9.406;2023-04-16T09:59:26;21.27;;;14.77;;
13343;SDS011;6741;48.964;9.406;2023-04-16T10:01:58;21.93;;;15.20;;
13343;SDS011;6741;48.964;9.406;2023-04-16T10:04:25;23.37;;;16.37;;
13343;SDS011;6741;48.964;9.406;2023-04-16T10:07:02;22.23;;;15.73;;
13343;SDS011;6741;48.964;9.406;2023-04-16T10:09:30;22.73;;;16.00;;
13343;SDS011;6741;48.964;9.406;2023-04-16T10:12:03;24.40;;;16.33;;
13343;SDS011;6741;48.964;9.406;2023-04-16T10:14:31;20.87;;;15.50;;
13343;SDS011;6741;48.964;9.406;2023-04-16T10:16:58;25.43;;;18.37;;
13343;SDS011;6741;48.964;9.406;2023-04-16T10:19:26;23.93;;;16.63;;
13343;SDS011;6741;48.964;9.406;2023-04-16T10:21:53;21.67;;;15.87;;
13343;SDS011;6741;48.964;9.406;2023-04-16T10:24:20;23.80;;;16.87;;
13343;SDS011;6741;48.964;9.406;2023-04-16T10:26:48;24.80;;;15.53;;
13343;SDS011;6741;48.964;9.406;2023-04-16T10:29:18;25.00;;;16.63;;
13343;SDS011;6741;48.964;9.406;2023-04-16T10:31:46;24.90;;;16.60;;
13343;SDS011;6741;48.964;9.406;2023-04-16T10:34:13;24.37;;;15.50;;
13343;SDS011;6741;48.964;9.406;2023-04-16T10:36:41;25.80;;;17.20;;
13343;SDS011;6741;48.964;9.406;2023-04-16T10:39:09;24.17;;;16.47;;
13343;SDS011;6741;48.964;9.406;2023-04-16T10:41:37;25.80;;;16.57;;
13343;SDS011;6741;48.964;9.406;2023-04-16T10:44:05;28.83;;;18.00;;
13343;SDS011;6741;48.964;9.406;2023-04-16T10:46:37;26.83;;;17.43;;
13343;SDS011;6741;48.964;9.406;2023-04-16T10:49:11;26.50;;;16.63;;
13343;SDS011;6741;48.964;9.406;2023-04-16T10:51:40;23.47;;;15.67;;
13343;SDS011;6741;48.964;9.406;2023-04-16T10:56:54;22.37;;;15.20;;
13343;SDS011;6741;48.964;9.406;2023-04-16T10:59:23;25.03;;;16.30;;
13343;SDS011;6741;48.964;9.406;2023-04-16T11:01:52;22.37;;;15.97;;
13343;SDS011;6741;48.964;9.406;2023-04-16T11:04:34;22.70;;;15.57;;
13343;SDS011;6741;48.964;9.406;2023-04-16T11:07:02;25.53;;;16.83;;
13343;SDS011;6741;48.964;9.406;2023-04-16T11:09:42;21.20;;;15.30;;
13343;SDS011;6741;48.964;9.406;2023-04-16T11:12:12;23.33;;;16.63;;
13343;SDS011;6741;48.964;9.406;2023-04-16T11:14:40;26.03;;;16.57;;
13343;SDS011;6741;48.964;9.406;2023-04-16T11:17:09;25.73;;;16.70;;
13343;SDS011;6741;48.964;9.406;2023-04-16T11:19:37;27.83;;;17.30;;
13343;SDS011;6741;48.964;9.406;2023-04-16T11:22:04;23.67;;;16.37;;
13343;SDS011;6741;48.964;9.406;2023-04-16T11:24:31;22.63;;;15.80;;
13343;SDS011;6741;48.964;9.406;2023-04-16T11:26:58;18.83;;;14.23;;
13343;SDS011;6741;48.964;9.406;2023-04-16T11:29:27;28.60;;;17.87;;
13343;SDS011;6741;48.964;9.406;2023-04-16T11:31:54;29.80;;;19.13;;
13343;SDS011;6741;48.964;9.406;2023-04-16T11:34:22;29.67;;;20.50;;
13343;SDS011;6741;48.964;9.406;2023-04-16T11:36:50;26.40;;;18.17;;
13343;SDS011;6741;48.964;9.406;2023-04-16T11:39:17;23.87;;;15.83;;
13343;SDS011;6741;48.964;9.406;2023-04-16T11:41:44;20.57;;;15.03;;
13343;SDS011;6741;48.964;9.406;2023-04-16T11:44:16;20.77;;;14.90;;
13343;SDS011;6741;48.964;9.406;2023-04-16T11:46:44;23.67;;;15.50;;
13343;SDS011;6741;48.964;9.406;2023-04-16T11:49:10;22.60;;;15.03;;
13343;SDS011;6741;48.964;9.406;2023-04-16T11:51:39;21.53;;;14.23;;
13343;SDS011;6741;48.964;9.406;2023-04-16T11:54:07;17.97;;;12.57;;
13343;SDS011;6741;48.964;9.406;2023-04-16T11:56:35;16.67;;;11.67;;
13343;SDS011;6741;48.964;9.406;2023-04-16T11:59:06;16.23;;;11.53;;
13343;SDS011;6741;48.964;9.406;2023-04-16T12:01:34;16.33;;;11.90;;
13343;SDS011;6741;48.964;9.406;2023-04-16T12:04:02;17.30;;;13.67;;
13343;SDS011;6741;48.964;9.406;2023-04-16T12:06:30;18.23;;;12.03;;
13343;SDS011;6741;48.964;9.406;2023-04-16T12:08:59;16.57;;;12.07;;
13343;SDS011;6741;48.964;9.406;2023-04-16T12:11:38;13.47;;;9.77;;
13343;SDS011;6741;48.964;9.406;2023-04-16T12:14:06;15.13;;;11.27;;
13343;SDS011;6741;48.964;9.406;2023-04-16T12:16:35;14.27;;;9.63;;
13343;SDS011;6741;48.964;9.406;2023-04-16T12:19:02;12.10;;;8.37;;
13343;SDS011;6741;48.964;9.406;2023-04-16T12:21:37;13.07;;;9.47;;
13343;SDS011;6741;48.964;9.406;2023-04-16T12:24:07;10.70;;;8.77;;
13343;SDS011;6741;48.964;9.406;2023-04-16T12:26:40;11.93;;;8.13;;
13343;SDS011;6741;48.964;9.406;2023-04-16T12:29:16;11.10;;;8.03;;
13343;SDS011;6741;48.964;9.406;2023-04-16T12:31:45;10.23;;;8.03;;
13343;SDS011;6741;48.964;9.406;2023-04-16T12:34:12;9.63;;;7.67;;
13343;SDS011;6741;48.964;9.406;2023-04-16T12:36:40;10.93;;;8.33;;
13343;SDS011;6741;48.964;9.406;2023-04-16T12:39:09;8.80;;;7.27;;
13343;SDS011;6741;48.964;9.406;2023-04-16T12:41:38;8.93;;;7.10;;
13343;SDS011;6741;48.964;9.406;2023-04-16T12:44:06;9.77;;;7.13;;
13343;SDS011;6741;48.964;9.406;2023-04-16T12:46:36;8.77;;;6.77;;
13343;SDS011;6741;48.964;9.406;2023-04-16T12:49:04;11.00;;;7.73;;
13343;SDS011;6741;48.964;9.406;2023-04-16T12:51:32;10.63;;;8.27;;
13343;SDS011;6741;48.964;9.406;2023-04-16T12:54:00;11.03;;;7.23;;
13343;SDS011;6741;48.964;9.406;2023-04-16T12:56:29;9.43;;;7.40;;
13343;SDS011;6741;48.964;9.406;2023-04-16T12:58:56;9.10;;;7.53;;
13343;SDS011;6741;48.964;9.406;2023-04-16T13:01:24;7.87;;;7.03;;
13343;SDS011;6741;48.964;9.406;2023-04-16T13:03:51;9.03;;;7.13;;
13343;SDS011;6741;48.964;9.406;2023-04-16T13:06:18;9.13;;;8.00;;
13343;SDS011;6741;48.964;9.406;2023-04-16T13:08:46;10.67;;;7.97;;
13343;SDS011;6741;48.964;9.406;2023-04-16T13:11:13;10.77;;;8.07;;
13343;SDS011;6741;48.964;9.406;2023-04-16T13:13:41;9.53;;;8.47;;
13343;SDS011;6741;48.964;9.406;2023-04-16T13:16:08;9.80;;;7.57;;
13343;SDS011;6741;48.964;9.406;2023-04-16T13:18:36;9.17;;;8.10;;
13343;SDS011;6741;48.964;9.406;2023-04-16T13:21:04;8.67;;;7.53;;
13343;SDS011;6741;48.964;9.406;2023-04-16T13:23:31;9.77;;;8.00;;
13343;SDS011;6741;48.964;9.406;2023-04-16T13:25:58;9.07;;;7.53;;
13343;SDS011;6741;48.964;9.406;2023-04-16T13:28:25;10.67;;;7.83;;
13343;SDS011;6741;48.964;9.406;2023-04-16T13:30:54;10.67;;;8.83;;
13343;SDS011;6741;48.964;9.406;2023-04-16T13:33:21;12.33;;;9.27;;
13343;SDS011;6741;48.964;9.406;2023-04-16T13:35:48;12.30;;;9.20;;
13343;SDS011;6741;48.964;9.406;2023-04-16T13:38:16;11.00;;;9.37;;
13343;SDS011;6741;48.964;9.406;2023-04-16T13:40:43;10.23;;;9.07;;
13343;SDS011;6741;48.964;9.406;2023-04-16T13:43:10;11.67;;;8.87;;
13343;SDS011;6741;48.964;9.406;2023-04-16T13:45:40;8.87;;;7.97;;
13343;SDS011;6741;48.964;9.406;2023-04-16T13:48:09;12.30;;;8.90;;
13343;SDS011;6741;48.964;9.406;2023-04-16T13:50:36;10.77;;;8.50;;
13343;SDS011;6741;48.964;9.406;2023-04-16T13:53:03;11.23;;;8.80;;
13343;SDS011;6741;48.964;9.406;2023-04-16T13:55:30;12.07;;;9.37;;
13343;SDS011;6741;48.964;9.406;2023-04-16T13:57:57;12.30;;;9.90;;
13343;SDS011;6741;48.964;9.406;2023-04-16T14:00:24;11.37;;;9.53;;
13343;SDS011;6741;48.964;9.406;2023-04-16T14:02:52;12.73;;;9.67;;
13343;SDS011;6741;48.964;9.406;2023-04-16T14:05:20;12.13;;;10.03;;
13343;SDS011;6741;48.964;9.406;2023-04-16T14:07:49;12.90;;;9.47;;
13343;SDS011;6741;48.964;9.406;2023-04-16T14:10:17;11.70;;;9.30;;
13343;SDS011;6741;48.964;9.406;2023-04-16T14:12:44;12.10;;;9.73;;
13343;SDS011;6741;48.964;9.406;2023-04-16T14:15:11;14.17;;;11.10;;
13343;SDS011;6741;48.964;9.406;2023-04-16T14:17:40;15.47;;;11.50;;
13343;SDS011;6741;48.964;9.406;2023-04-16T14:20:08;14.73;;;12.37;;
13343;SDS011;6741;48.964;9.406;2023-04-16T14:22:38;13.90;;;11.30;;
13343;SDS011;6741;48.964;9.406;2023-04-16T14:25:06;14.63;;;11.80;;
13343;SDS011;6741;48.964;9.406;2023-04-16T14:27:34;15.80;;;12.80;;
13343;SDS011;6741;48.964;9.406;2023-04-16T14:30:01;15.87;;;12.80;;
13343;SDS011;6741;48.964;9.406;2023-04-16T14:32:28;16.17;;;11.90;;
13343;SDS011;6741;48.964;9.406;2023-04-16T14:34:55;16.97;;;12.93;;
13343;SDS011;6741;48.964;9.406;2023-04-16T14:37:22;15.67;;;12.10;;
13343;SDS011;6741;48.964;9.406;2023-04-16T14:39:51;15.43;;;12.63;;
13343;SDS011;6741;48.964;9.406;2023-04-16T14:42:19;15.03;;;12.00;;
13343;SDS011;6741;48.964;9.406;2023-04-16T14:44:46;14.33;;;12.20;;